createdAt,value
2018-08-31T00:02:18.058Z,101165.16
2018-08-31T00:05:02.763Z,101168.87
2018-08-31T00:07:48.025Z,101169.44
2018-08-31T00:10:48.274Z,101173.41
2018-08-31T00:13:21.628Z,101167.11
2018-08-31T00:15:55.018Z,101171.56
2018-08-31T00:18:28.357Z,101175.07
2018-08-31T00:21:01.697Z,101169.56
2018-08-31T00:23:46.465Z,101167.94
2018-08-31T00:26:31.033Z,101169.72
2018-08-31T00:29:51.023Z,101174.50
2018-08-31T00:34:44.458Z,101174.16
2018-08-31T00:39:35.038Z,101168.06
2018-08-31T00:42:19.606Z,101182.44
2018-08-31T00:45:04.959Z,101176.92
2018-08-31T00:47:38.506Z,101186.09
2018-08-31T00:50:11.874Z,101188.45
2018-08-31T00:52:45.218Z,101185.11
2018-08-31T00:55:18.603Z,101185.45
2018-08-31T00:57:52.485Z,101178.70
2018-08-31T01:00:25.786Z,101180.87
2018-08-31T01:02:59.120Z,101176.77
2018-08-31T01:05:32.477Z,101180.95
2018-08-31T01:08:05.883Z,101181.36
2018-08-31T01:10:39.309Z,101180.52
2018-08-31T01:13:12.646Z,101186.88
2018-08-31T01:15:46.010Z,101183.13
2018-08-31T01:18:19.353Z,101180.13
2018-08-31T01:20:52.695Z,101185.69
2018-08-31T01:23:26.041Z,101189.38
2018-08-31T01:25:59.364Z,101186.82
2018-08-31T01:28:32.675Z,101193.77
2018-08-31T01:31:06.012Z,101187.13
2018-08-31T01:33:39.331Z,101186.24
2018-08-31T01:36:12.758Z,101189.19
2018-08-31T01:38:46.303Z,101178.47
2018-08-31T01:41:19.631Z,101187.88
2018-08-31T01:43:53.009Z,101180.62
2018-08-31T01:46:26.397Z,101185.35
2018-08-31T01:48:59.817Z,101190.13
2018-08-31T01:51:33.149Z,101186.64
2018-08-31T01:54:06.577Z,101191.02
2018-08-31T01:56:39.953Z,101191.10
2018-08-31T01:59:13.265Z,101192.48
2018-08-31T02:01:46.672Z,101192.13
2018-08-31T02:04:20.056Z,101194.69
2018-08-31T02:06:53.397Z,101192.62
2018-08-31T02:09:26.718Z,101191.65
2018-08-31T02:12:00.108Z,101200.61
2018-08-31T02:14:33.405Z,101196.02
2018-08-31T02:17:06.837Z,101200.08
2018-08-31T02:19:40.148Z,101203.16
2018-08-31T02:22:13.586Z,101196.84
2018-08-31T02:24:46.884Z,101200.21
2018-08-31T02:27:20.203Z,101190.02
2018-08-31T02:29:53.525Z,101196.90
2018-08-31T02:32:26.893Z,101190.94
2018-08-31T02:35:00.714Z,101190.98
2018-08-31T02:37:34.064Z,101193.98
2018-08-31T02:40:07.409Z,101196.59
2018-08-31T02:42:40.757Z,101188.07
2018-08-31T02:45:14.066Z,101195.75
2018-08-31T02:47:47.884Z,101197.06
2018-08-31T02:50:21.189Z,101198.83
2018-08-31T02:52:54.536Z,101197.19
2018-08-31T02:55:27.854Z,101192.91
2018-08-31T02:58:01.827Z,101197.19
2018-08-31T03:00:35.589Z,101193.23
2018-08-31T03:03:08.989Z,101191.95
2018-08-31T03:05:42.309Z,101191.27
2018-08-31T03:08:15.632Z,101193.70
2018-08-31T03:10:48.957Z,101191.55
2018-08-31T03:13:22.330Z,101194.47
2018-08-31T03:15:55.674Z,101190.23
2018-08-31T03:18:29.910Z,101187.27
2018-08-31T03:21:03.226Z,101194.10
2018-08-31T03:23:37.374Z,101190.27
2018-08-31T03:26:10.682Z,101195.34
2018-08-31T03:28:44.030Z,101195.79
2018-08-31T03:31:17.391Z,101193.23
2018-08-31T03:33:50.743Z,101191.06
2018-08-31T03:36:24.070Z,101193.23
2018-08-31T03:38:57.418Z,101194.58
2018-08-31T03:41:31.442Z,101192.07
2018-08-31T03:44:05.112Z,101192.55
2018-08-31T03:46:38.427Z,101198.55
2018-08-31T03:49:11.783Z,101193.47
2018-08-31T03:51:45.114Z,101188.91
2018-08-31T03:54:18.472Z,101197.02
2018-08-31T03:56:51.871Z,101191.57
2018-08-31T03:59:25.234Z,101190.29
2018-08-31T04:01:58.583Z,101191.61
2018-08-31T04:04:31.909Z,101192.92
2018-08-31T04:07:05.254Z,101201.54
2018-08-31T04:09:38.646Z,101198.95
2018-08-31T04:12:11.974Z,101208.81
2018-08-31T04:14:45.349Z,101208.94
2018-08-31T04:17:18.714Z,101206.79
2018-08-31T04:19:52.126Z,101203.89
2018-08-31T04:22:25.467Z,101209.84
2018-08-31T04:24:58.849Z,101211.59
2018-08-31T04:27:32.237Z,101208.98
2018-08-31T04:30:06.637Z,101209.78
2018-08-31T04:32:39.967Z,101216.65
2018-08-31T04:35:13.305Z,101221.32
2018-08-31T04:37:46.643Z,101208.54
2018-08-31T04:40:19.996Z,101213.66
2018-08-31T04:42:53.416Z,101207.63
2018-08-31T04:45:27.006Z,101209.78
2018-08-31T04:48:00.403Z,101208.06
2018-08-31T04:50:33.801Z,101208.88
2018-08-31T04:53:07.177Z,101204.13
2018-08-31T04:55:40.509Z,101202.45
2018-08-31T04:58:13.829Z,101203.86
2018-08-31T05:00:47.170Z,101199.89
2018-08-31T05:03:20.494Z,101204.03
2018-08-31T05:05:53.865Z,101204.73
2018-08-31T05:08:27.182Z,101201.73
2018-08-31T05:11:00.550Z,101207.31
2018-08-31T05:13:33.908Z,101216.20
2018-08-31T05:16:07.312Z,101202.72
2018-08-31T05:18:40.654Z,101208.05
2018-08-31T05:21:14.009Z,101206.73
2018-08-31T05:23:47.365Z,101210.20
2018-08-31T05:26:20.731Z,101211.52
2018-08-31T05:28:54.313Z,101217.84
2018-08-31T05:31:27.665Z,101215.24
2018-08-31T05:34:01.087Z,101218.82
2018-08-31T05:36:34.414Z,101214.84
2018-08-31T05:39:09.461Z,101217.36
2018-08-31T05:41:43.183Z,101222.67
2018-08-31T05:44:16.593Z,101225.02
2018-08-31T05:46:49.937Z,101230.31
2018-08-31T05:49:23.240Z,101228.86
2018-08-31T05:51:56.648Z,101232.45
2018-08-31T05:54:29.993Z,101228.23
2018-08-31T05:57:03.402Z,101229.34
2018-08-31T05:59:36.718Z,101236.72
2018-08-31T06:02:10.097Z,101235.72
2018-08-31T06:04:43.446Z,101240.85
2018-08-31T06:07:16.813Z,101237.48
2018-08-31T06:09:50.132Z,101245.17
2018-08-31T06:12:23.509Z,101248.73
2018-08-31T06:14:56.834Z,101247.66
2018-08-31T06:17:30.234Z,101250.42
2018-08-31T06:20:03.614Z,101242.85
2018-08-31T06:22:36.961Z,101246.89
2018-08-31T06:25:10.281Z,101246.81
2018-08-31T06:27:43.641Z,101243.46
2018-08-31T06:30:16.967Z,101244.38
2018-08-31T06:32:50.302Z,101241.78
2018-08-31T06:35:23.648Z,101244.14
2018-08-31T06:37:56.990Z,101242.44
2018-08-31T06:40:30.356Z,101242.30
2018-08-31T06:43:03.737Z,101243.99
2018-08-31T06:45:37.039Z,101241.58
2018-08-31T06:48:10.375Z,101246.78
2018-08-31T06:50:43.697Z,101246.48
2018-08-31T06:53:17.033Z,101239.92
2018-08-31T06:55:50.364Z,101248.15
2018-08-31T06:58:23.712Z,101246.98
2018-08-31T07:00:57.041Z,101243.98
2018-08-31T07:03:31.258Z,101255.19
2018-08-31T07:06:04.626Z,101259.53
2018-08-31T07:08:37.958Z,101261.52
2018-08-31T07:11:11.286Z,101259.14
2018-08-31T07:13:44.669Z,101259.45
2018-08-31T07:16:17.993Z,101262.30
2018-08-31T07:18:51.349Z,101258.41
2018-08-31T07:21:24.669Z,101260.92
2018-08-31T07:23:58.031Z,101261.05
2018-08-31T07:26:31.423Z,101260.66
2018-08-31T07:29:04.773Z,101264.48
2018-08-31T07:31:38.148Z,101271.59
2018-08-31T07:34:11.466Z,101267.87
2018-08-31T07:36:44.822Z,101273.77
2018-08-31T07:39:18.236Z,101272.81
2018-08-31T07:41:51.577Z,101268.22
2018-08-31T07:44:24.926Z,101270.53
2018-08-31T07:46:58.257Z,101271.55
2018-08-31T07:49:31.577Z,101275.17
2018-08-31T07:52:04.953Z,101267.24
2018-08-31T07:54:38.351Z,101266.81
2018-08-31T07:57:11.693Z,101265.75
2018-08-31T07:59:45.017Z,101268.38
2018-08-31T08:02:18.359Z,101264.06
2018-08-31T08:04:51.764Z,101267.17
2018-08-31T08:07:25.154Z,101269.38
2018-08-31T08:09:58.591Z,101264.59
2018-08-31T08:12:31.937Z,101266.25
2018-08-31T08:15:05.598Z,101272.38
2018-08-31T08:17:45.662Z,101270.15
2018-08-31T08:20:19.265Z,101274.81
2018-08-31T08:22:52.645Z,101280.62
2018-08-31T08:25:25.961Z,101285.47
2018-08-31T08:28:00.690Z,101285.68
2018-08-31T08:30:34.009Z,101283.89
2018-08-31T08:33:07.594Z,101287.96
2018-08-31T08:35:40.915Z,101284.66
2018-08-31T08:38:14.823Z,101285.16
2018-08-31T08:40:48.165Z,101285.50
2018-08-31T08:43:21.572Z,101284.65
2018-08-31T08:45:55.070Z,101284.95
2018-08-31T08:48:28.538Z,101279.59
2018-08-31T08:51:01.786Z,101283.80
2018-08-31T08:53:35.134Z,101286.31
2018-08-31T08:56:08.653Z,101290.98
2018-08-31T08:58:42.012Z,101287.00
2018-08-31T09:01:15.363Z,101288.84
2018-08-31T09:03:48.699Z,101290.44
2018-08-31T09:06:22.252Z,101289.52
2018-08-31T09:08:55.587Z,101288.30
2018-08-31T09:11:29.885Z,101294.95
2018-08-31T09:14:03.236Z,101300.12
2018-08-31T09:16:36.737Z,101293.17
2018-08-31T09:19:10.490Z,101297.63
2018-08-31T09:21:43.805Z,101293.61
2018-08-31T09:24:17.141Z,101293.06
2018-08-31T09:26:50.453Z,101298.91
2018-08-31T09:29:23.804Z,101299.31
2018-08-31T09:31:57.120Z,101287.48
2018-08-31T09:34:30.613Z,101286.42
2018-08-31T09:37:03.933Z,101291.03
2018-08-31T09:39:37.292Z,101282.58
2018-08-31T09:42:10.745Z,101291.25
2018-08-31T09:44:44.227Z,101291.96
2018-08-31T09:47:17.557Z,101292.20
2018-08-31T09:49:50.929Z,101286.61
2018-08-31T09:52:24.253Z,101279.23
2018-08-31T09:54:57.588Z,101288.44
2018-08-31T09:57:30.965Z,101279.45
2018-08-31T10:00:04.732Z,101286.55
2018-08-31T10:02:39.878Z,101282.06
2018-08-31T10:05:13.219Z,101285.75
2018-08-31T10:07:46.581Z,101287.09
2018-08-31T10:10:19.941Z,101279.16
2018-08-31T10:12:53.341Z,101283.20
2018-08-31T10:15:26.668Z,101270.30
2018-08-31T10:18:00.114Z,101268.33
2018-08-31T10:20:33.456Z,101269.21
2018-08-31T10:23:06.974Z,101266.52
2018-08-31T10:25:40.300Z,101265.69
2018-08-31T10:28:13.678Z,101268.04
2018-08-31T10:30:47.193Z,101264.29
2018-08-31T10:33:20.542Z,101263.67
2018-08-31T10:35:53.886Z,101265.88
2018-08-31T10:38:27.247Z,101266.40
2018-08-31T10:41:01.173Z,101264.37
2018-08-31T10:43:34.497Z,101255.50
2018-08-31T10:46:07.877Z,101262.50
2018-08-31T10:48:41.186Z,101250.36
2018-08-31T10:51:14.545Z,101252.66
2018-08-31T10:53:47.885Z,101251.77
2018-08-31T10:56:21.234Z,101248.16
2018-08-31T10:58:54.636Z,101254.17
2018-08-31T11:01:28.032Z,101249.23
2018-08-31T11:04:01.395Z,101251.30
2018-08-31T11:06:34.738Z,101252.51
2018-08-31T11:09:08.213Z,101246.30
2018-08-31T11:11:41.615Z,101257.11
2018-08-31T11:14:15.037Z,101254.93
2018-08-31T11:16:48.421Z,101254.95
2018-08-31T11:19:21.749Z,101246.89
2018-08-31T11:21:55.517Z,101249.02
2018-08-31T11:24:28.857Z,101259.08
2018-08-31T11:27:02.177Z,101252.66
2018-08-31T11:29:35.760Z,101256.59
2018-08-31T11:32:09.119Z,101249.44
2018-08-31T11:34:42.453Z,101251.67
2018-08-31T11:37:15.848Z,101262.33
2018-08-31T11:39:49.186Z,101255.59
2018-08-31T11:42:22.514Z,101256.33
2018-08-31T11:44:55.888Z,101256.55
2018-08-31T11:47:29.268Z,101253.22
2018-08-31T11:50:02.925Z,101249.27
2018-08-31T11:52:36.855Z,101246.24
2018-08-31T11:55:10.995Z,101245.35
2018-08-31T11:57:45.082Z,101243.77
2018-08-31T12:00:20.474Z,101243.24
2018-08-31T12:02:55.750Z,101241.65
2018-08-31T12:05:30.320Z,101241.62
2018-08-31T12:08:05.240Z,101251.50
2018-08-31T12:10:39.802Z,101253.34
2018-08-31T12:13:14.150Z,101248.59
2018-08-31T12:15:48.596Z,101242.28
2018-08-31T12:18:22.840Z,101246.24
2018-08-31T12:20:57.002Z,101241.31
2018-08-31T12:23:31.218Z,101247.77
2018-08-31T12:26:05.912Z,101241.91
2018-08-31T12:28:40.180Z,101244.03
2018-08-31T12:31:14.596Z,101246.56
2018-08-31T12:33:47.997Z,101245.80
2018-08-31T12:36:22.270Z,101246.44
2018-08-31T12:38:56.336Z,101257.02
2018-08-31T12:41:29.825Z,101254.31
2018-08-31T12:44:03.362Z,101259.81
2018-08-31T12:46:36.730Z,101250.47
2018-08-31T12:49:10.119Z,101256.98
2018-08-31T12:51:43.466Z,101253.02
2018-08-31T12:54:17.944Z,101254.43
2018-08-31T12:56:51.906Z,101247.77
2018-08-31T12:59:26.251Z,101240.41
2018-08-31T13:02:01.553Z,101241.84
2018-08-31T13:04:35.767Z,101240.94
2018-08-31T13:07:09.663Z,101243.37
2018-08-31T13:09:44.197Z,101243.84
2018-08-31T13:12:18.255Z,101237.41
2018-08-31T13:14:52.182Z,101238.55
2018-08-31T13:17:25.658Z,101235.41
2018-08-31T13:19:59.071Z,101237.67
2018-08-31T13:22:32.369Z,101235.47
2018-08-31T13:25:05.866Z,101241.80
2018-08-31T13:27:39.340Z,101234.05
2018-08-31T13:30:13.624Z,101229.61
2018-08-31T13:32:48.187Z,101228.23
2018-08-31T13:35:21.624Z,101233.54
2018-08-31T13:37:55.081Z,101233.87
2018-08-31T13:40:28.466Z,101239.64
2018-08-31T13:43:02.209Z,101240.84
2018-08-31T13:45:35.563Z,101230.91
2018-08-31T13:48:08.963Z,101232.84
2018-08-31T13:50:42.325Z,101229.44
2018-08-31T13:53:15.739Z,101234.00
2018-08-31T13:55:49.156Z,101229.13
2018-08-31T13:58:22.558Z,101235.08
2018-08-31T14:00:55.853Z,101236.34
2018-08-31T14:03:29.158Z,101239.91
2018-08-31T14:06:02.583Z,101241.20
2018-08-31T14:08:35.917Z,101237.84
2018-08-31T14:11:09.292Z,101238.67
2018-08-31T14:13:42.660Z,101237.94
2018-08-31T14:16:16.010Z,101232.11
2018-08-31T14:18:49.437Z,101225.44
2018-08-31T14:21:22.778Z,101232.70
2018-08-31T14:23:56.092Z,101232.02
2018-08-31T14:26:30.373Z,101232.23
2018-08-31T14:29:03.746Z,101226.09
2018-08-31T14:31:37.111Z,101228.22
2018-08-31T14:34:10.569Z,101235.92
2018-08-31T14:36:44.965Z,101231.03
2018-08-31T14:39:18.334Z,101234.30
2018-08-31T14:41:51.677Z,101228.69
2018-08-31T14:44:25.060Z,101228.28
2018-08-31T14:46:58.552Z,101237.27
2018-08-31T14:49:32.145Z,101238.12
2018-08-31T14:52:06.193Z,101230.58
2018-08-31T14:54:39.586Z,101235.72
2018-08-31T14:57:13.025Z,101237.45
2018-08-31T14:59:46.412Z,101239.36
2018-08-31T15:02:19.895Z,101234.84
2018-08-31T15:04:53.538Z,101232.30
2018-08-31T15:07:27.206Z,101227.98
2018-08-31T15:10:00.786Z,101232.77
2018-08-31T15:12:34.410Z,101232.48
2018-08-31T15:15:07.873Z,101230.27
2018-08-31T15:17:41.689Z,101232.86
2018-08-31T15:20:15.008Z,101231.23
2018-08-31T15:22:48.551Z,101234.34
2018-08-31T15:25:21.900Z,101234.58
2018-08-31T15:27:55.705Z,101235.25
2018-08-31T15:30:29.025Z,101224.34
2018-08-31T15:33:02.364Z,101219.62
2018-08-31T15:35:35.790Z,101222.98
2018-08-31T15:38:09.178Z,101228.24
2018-08-31T15:40:42.570Z,101224.39
2018-08-31T15:43:16.675Z,101220.08
2018-08-31T15:45:50.252Z,101225.42
2018-08-31T15:48:23.593Z,101220.91
2018-08-31T15:50:57.093Z,101216.80
2018-08-31T15:53:30.433Z,101216.27
2018-08-31T15:56:04.065Z,101216.58
2018-08-31T15:58:37.331Z,101212.70
2018-08-31T16:01:10.677Z,101218.69
2018-08-31T16:03:44.102Z,101225.32
2018-08-31T16:06:17.485Z,101228.64
2018-08-31T16:08:50.812Z,101232.14
2018-08-31T16:11:27.993Z,101227.66
2018-08-31T16:14:02.196Z,101231.45
2018-08-31T16:16:35.571Z,101232.91
2018-08-31T16:19:08.918Z,101227.71
2018-08-31T16:21:42.277Z,101231.30
2018-08-31T16:24:15.652Z,101231.30
2018-08-31T16:26:49.053Z,101232.39
2018-08-31T16:29:22.384Z,101228.04
2018-08-31T16:31:55.730Z,101234.91
2018-08-31T16:34:29.080Z,101236.20
2018-08-31T16:37:02.420Z,101230.95
2018-08-31T16:39:35.754Z,101234.51
2018-08-31T16:42:09.128Z,101243.91
2018-08-31T16:44:42.453Z,101245.88
2018-08-31T16:47:15.782Z,101244.77
2018-08-31T16:49:49.117Z,101245.97
2018-08-31T16:52:22.445Z,101247.69
2018-08-31T16:54:55.793Z,101248.49
2018-08-31T16:57:29.156Z,101249.25
2018-08-31T17:00:02.553Z,101250.48
2018-08-31T17:02:35.870Z,101249.77
2018-08-31T17:05:09.236Z,101254.65
2018-08-31T17:07:42.574Z,101252.66
2018-08-31T17:10:16.009Z,101253.21
2018-08-31T17:12:49.319Z,101257.25
2018-08-31T17:15:22.653Z,101260.91
2018-08-31T17:17:56.002Z,101255.64
2018-08-31T17:20:29.437Z,101264.91
2018-08-31T17:23:02.772Z,101259.27
2018-08-31T17:25:36.121Z,101259.45
2018-08-31T17:28:14.742Z,101262.75
2018-08-31T17:30:48.138Z,101268.54
2018-08-31T17:33:26.744Z,101271.03
2018-08-31T17:36:05.518Z,101270.87
2018-08-31T17:38:38.898Z,101275.41
2018-08-31T17:41:12.289Z,101282.48
2018-08-31T17:43:45.622Z,101281.86
2018-08-31T17:46:18.988Z,101287.64
2018-08-31T17:48:56.127Z,101286.23
2018-08-31T17:51:29.966Z,101293.19
2018-08-31T17:54:03.301Z,101295.59
2018-08-31T17:56:36.659Z,101290.67
2018-08-31T17:59:10.069Z,101298.31
2018-08-31T18:01:43.385Z,101302.19
2018-08-31T18:04:16.922Z,101307.38
2018-08-31T18:06:50.338Z,101302.35
2018-08-31T18:09:23.865Z,101304.48
2018-08-31T18:11:57.193Z,101306.28
2018-08-31T18:14:30.605Z,101312.95
2018-08-31T18:17:03.980Z,101321.27
2018-08-31T18:19:37.487Z,101327.15
2018-08-31T18:22:10.805Z,101323.52
2018-08-31T18:24:44.171Z,101326.80
2018-08-31T18:27:17.532Z,101331.25
2018-08-31T18:29:50.868Z,101327.95
2018-08-31T18:32:24.172Z,101333.78
2018-08-31T18:34:57.503Z,101336.53
2018-08-31T18:37:30.878Z,101335.05
2018-08-31T18:40:05.366Z,101340.08
2018-08-31T18:42:39.994Z,101336.43
2018-08-31T18:45:13.377Z,101338.87
2018-08-31T18:47:46.804Z,101345.63
2018-08-31T18:50:20.178Z,101349.73
2018-08-31T18:52:53.621Z,101349.20
2018-08-31T18:55:27.403Z,101349.42
2018-08-31T18:58:00.929Z,101348.84
2018-08-31T19:00:34.234Z,101350.42
2018-08-31T19:03:07.764Z,101351.86
2018-08-31T19:05:41.178Z,101355.08
2018-08-31T19:08:14.549Z,101360.91
2018-08-31T19:10:47.901Z,101367.65
2018-08-31T19:13:21.265Z,101366.78
2018-08-31T19:15:54.597Z,101370.58
2018-08-31T19:18:28.278Z,101373.42
2018-08-31T19:21:01.789Z,101377.11
2018-08-31T19:23:35.278Z,101385.50
2018-08-31T19:26:08.621Z,101384.47
2018-08-31T19:28:42.210Z,101381.31
2018-08-31T19:31:17.280Z,101385.53
2018-08-31T19:33:51.842Z,101390.05
2018-08-31T19:36:25.291Z,101383.46
2018-08-31T19:38:58.636Z,101387.16
2018-08-31T19:41:33.101Z,101393.00
2018-08-31T19:44:06.651Z,101391.98
2018-08-31T19:46:40.143Z,101399.87
2018-08-31T19:49:13.645Z,101392.83
2018-08-31T19:51:47.168Z,101401.56
2018-08-31T19:54:20.916Z,101396.70
2018-08-31T19:56:54.728Z,101397.20
2018-08-31T19:59:28.689Z,101404.18
2018-08-31T20:02:02.287Z,101406.95
2018-08-31T20:04:35.842Z,101411.46
2018-08-31T20:07:09.399Z,101412.97
2018-08-31T20:09:42.870Z,101408.06
2018-08-31T20:12:16.234Z,101417.99
2018-08-31T20:14:49.564Z,101411.63
2018-08-31T20:17:23.370Z,101418.66
2018-08-31T20:19:56.677Z,101414.42
2018-08-31T20:22:30.033Z,101420.55
2018-08-31T20:25:03.345Z,101416.31
2018-08-31T20:27:36.728Z,101422.82
2018-08-31T20:30:10.082Z,101418.06
2018-08-31T20:32:43.410Z,101430.48
2018-08-31T20:35:16.736Z,101427.16
2018-08-31T20:37:50.468Z,101431.53
2018-08-31T20:40:23.814Z,101429.02
2018-08-31T20:42:57.141Z,101428.25
2018-08-31T20:45:30.518Z,101433.40
2018-08-31T20:48:03.886Z,101434.76
2018-08-31T20:50:37.237Z,101441.24
2018-08-31T20:53:10.588Z,101438.75
2018-08-31T20:55:43.960Z,101441.78
2018-08-31T20:58:17.314Z,101448.73
2018-08-31T21:00:50.641Z,101447.97
2018-08-31T21:03:24.235Z,101441.22
2018-08-31T21:05:57.605Z,101449.84
2018-08-31T21:08:31.562Z,101450.34
2018-08-31T21:11:04.935Z,101448.23
2018-08-31T21:13:38.531Z,101450.03
2018-08-31T21:16:12.059Z,101449.66
2018-08-31T21:18:45.390Z,101450.55
2018-08-31T21:21:18.736Z,101453.64
2018-08-31T21:23:52.045Z,101457.95
2018-08-31T21:26:25.456Z,101458.45
2018-08-31T21:28:58.776Z,101453.38
2018-08-31T21:31:33.236Z,101452.16
2018-08-31T21:34:07.120Z,101457.42
2018-08-31T21:36:40.450Z,101461.30
2018-08-31T21:39:13.816Z,101463.86
2018-08-31T21:41:47.144Z,101460.90
2018-08-31T21:44:20.470Z,101464.82
2018-08-31T21:46:53.797Z,101468.28
2018-08-31T21:49:27.273Z,101473.88
2018-08-31T21:52:00.950Z,101474.84
2018-08-31T21:54:34.276Z,101474.84
2018-08-31T21:57:08.348Z,101467.13
2018-08-31T21:59:41.789Z,101466.33
2018-08-31T22:02:15.351Z,101468.92
2018-08-31T22:04:48.673Z,101470.20
2018-08-31T22:07:22.017Z,101460.92
2018-08-31T22:09:55.345Z,101465.20
2018-08-31T22:12:28.796Z,101466.62
2018-08-31T22:15:02.257Z,101466.68
2018-08-31T22:17:35.602Z,101469.67
2018-08-31T22:20:08.981Z,101468.41
2018-08-31T22:22:42.343Z,101466.68
2018-08-31T22:25:15.650Z,101464.60
2018-08-31T22:27:49.164Z,101461.64
2018-08-31T22:30:22.492Z,101465.99
2018-08-31T22:32:55.858Z,101461.38
2018-08-31T22:35:29.178Z,101460.16
2018-08-31T22:38:02.766Z,101455.56
2018-08-31T22:40:36.167Z,101454.72
2018-08-31T22:43:09.707Z,101460.70
2018-08-31T22:45:43.203Z,101461.59
2018-08-31T22:48:16.566Z,101453.89
2018-08-31T22:50:50.047Z,101460.31
2018-08-31T22:53:23.721Z,101455.64
2018-08-31T22:55:57.237Z,101458.65
2018-08-31T22:58:30.740Z,101458.65
2018-08-31T23:01:04.287Z,101458.65
2018-08-31T23:03:38.127Z,101462.95
2018-08-31T23:06:11.657Z,101460.77
2018-08-31T23:08:45.175Z,101468.58
2018-08-31T23:11:18.657Z,101463.48
2018-08-31T23:13:52.269Z,101467.84
2018-08-31T23:16:25.761Z,101465.77
2018-08-31T23:18:59.787Z,101466.27
2018-08-31T23:21:33.274Z,101461.20
2018-08-31T23:24:07.636Z,101465.12
2018-08-31T23:26:41.404Z,101467.83
2018-08-31T23:29:14.760Z,101466.21
2018-08-31T23:31:48.071Z,101472.23
2018-08-31T23:34:22.218Z,101474.37
2018-08-31T23:36:55.548Z,101476.14
2018-08-31T23:39:28.972Z,101472.43
2018-08-31T23:42:02.312Z,101470.30
2018-08-31T23:44:35.644Z,101474.66
2018-08-31T23:47:09.089Z,101475.55
2018-08-31T23:49:42.576Z,101472.69
2018-08-31T23:52:15.988Z,101478.35
2018-08-31T23:54:49.336Z,101475.00
2018-08-31T23:57:23.703Z,101471.19
2018-08-31T23:59:57.370Z,101481.06
